This is the latest recevied weather packets stored in our database for station/object KSUZ. If no packets are shown the sender has not sent any weather packets the latest 10 day(s).
| Time | Temp. | Humidity | Pressure | Rain* | Wind** | Luminosity | Snow |
|---|---|---|---|---|---|---|---|
| 1778250820 | 17.78° C | 72% | 1015.9 hPa | - | - | - | - |
| 1778250219 | 17.78° C | 72% | 1015.9 hPa | - | - | - | - |
| 1778249619 | 16.67° C | 72% | 1016.3 hPa | - | - | - | - |
| 1778249021 | 16.67° C | 72% | 1016.3 hPa | - | - | - | - |
| 1778248420 | 15.56° C | 77% | 1015.9 hPa | - | - | - | - |
| 1778247817 | 15.56° C | 77% | 1015.9 hPa | - | - | - | - |
| 1778247221 | 13.89° C | 93% | 1016.3 hPa | - | - | - | - |
| 1778246618 | 13.89° C | 93% | 1016.3 hPa | - | - | - | - |
| 1778246015 | 11.67° C | 100% | 1016.6 hPa | - | - | - | - |
| 1778245420 | 11.67° C | 100% | 1016.6 hPa | - | - | - | - |
| 1778244820 | 10.56° C | 100% | 1016.3 hPa | - | - | - | - |
| 1778244221 | 10.56° C | 100% | 1016.3 hPa | - | - | - | - |
| 1778243621 | 10° C | 99% | 1016.6 hPa | - | - | - | - |
| 1778243020 | 10° C | 99% | 1016.6 hPa | - | - | - | - |
| 1778242419 | 10° C | 99% | 1016.3 hPa | - | - | - | - |
| 1778241819 | 10° C | 99% | 1016.3 hPa | - | - | - | - |
| 1778241219 | 7.78° C | 100% | 1016.3 hPa | - | - | - | - |
| 1778240618 | 7.78° C | 100% | 1016.3 hPa | - | - | - | - |
| 1778240016 | 7.78° C | 100% | 1016.3 hPa | - | - | - | - |
| 1778239419 | 7.78° C | 100% | 1016.3 hPa | - | - | - | - |
| 1778238819 | 8.89° C | 100% | 1015.9 hPa | - | - | - | - |
| 1778238218 | 8.89° C | 100% | 1015.9 hPa | - | - | - | - |
| 1778237622 | 8.89° C | 100% | 1015.6 hPa | - | - | - | - |
| 1778237020 | 8.89° C | 100% | 1015.6 hPa | - | - | - | - |
| 1778236418 | 8.89° C | 100% | 1015.6 hPa | - | - | - | - |
* Rain since midnight (hover to see other rain measurements)
** Current wind speed in m/s (hover to see current wind gust speed)